Time;durP1;ratioP1;P1;durP2;ratioP2;P2;SDS_P1;SDS_P2;PMS_P1;PMS_P2;Temp;Humidity;BMP_temperature;BMP_pressure;BME280_temperature;BME280_humidity;BME280_pressure;Samples;Min_cycle;Max_cycle;Signal;HPM_P1;HPM_P2
2022/10/13 00:00:57;;;;;;;0.68;0.63;;;14.00;99.90;;;;;;5022961;28;20063;-73
2022/10/13 00:03:23;;;;;;;2.95;0.70;;;14.00;99.90;;;;;;5020248;28;20048;-73
2022/10/13 00:05:51;;;;;;;1.38;0.68;;;14.00;99.90;;;;;;5042931;28;20144;-73
2022/10/13 00:08:19;;;;;;;1.00;0.63;;;14.00;99.90;;;;;;5009293;28;20049;-73
2022/10/13 00:10:47;;;;;;;1.63;0.80;;;14.00;99.90;;;;;;5025721;28;20053;-73
2022/10/13 00:13:14;;;;;;;1.33;0.70;;;14.00;99.90;;;;;;5039334;28;20125;-74
2022/10/13 00:15:42;;;;;;;0.77;0.55;;;14.00;99.90;;;;;;5010455;28;20395;-80
2022/10/13 00:18:09;;;;;;;0.77;0.60;;;13.90;99.90;;;;;;5027021;28;20144;-81
2022/10/13 00:20:40;;;;;;;0.52;0.52;;;13.90;99.90;;;;;;5027406;28;20432;-81
2022/10/13 00:23:07;;;;;;;0.43;0.40;;;13.90;99.90;;;;;;5023070;28;20132;-80
2022/10/13 00:25:39;;;;;;;0.45;0.43;;;13.90;99.90;;;;;;5025052;28;20115;-80
2022/10/13 00:28:06;;;;;;;0.45;0.45;;;13.90;99.90;;;;;;5043132;28;20049;-80
2022/10/13 00:30:34;;;;;;;0.60;0.52;;;13.90;99.90;;;;;;5043642;28;20431;-79
2022/10/13 00:33:01;;;;;;;0.65;0.60;;;13.80;99.90;;;;;;5048661;28;20052;-78
2022/10/13 00:35:28;;;;;;;0.50;0.50;;;13.80;99.90;;;;;;5029674;28;20049;-77
2022/10/13 00:37:54;;;;;;;0.40;0.40;;;13.80;99.90;;;;;;5025792;28;20061;-77
2022/10/13 00:40:21;;;;;;;0.45;0.32;;;13.80;99.90;;;;;;5038985;28;20063;-76
2022/10/13 00:42:48;;;;;;;0.60;0.50;;;13.80;99.90;;;;;;5033563;28;20044;-76
2022/10/13 00:45:28;;;;;;;0.50;0.40;;;13.80;99.90;;;;;;5039515;28;20370;-75
2022/10/13 00:47:59;;;;;;;0.55;0.50;;;13.80;99.90;;;;;;5027582;28;20132;-75
2022/10/13 00:50:35;;;;;;;0.82;0.50;;;13.70;99.90;;;;;;5041762;28;20053;-75
2022/10/13 00:53:02;;;;;;;0.50;0.50;;;13.70;99.90;;;;;;5057608;28;20067;-75
2022/10/13 00:55:31;;;;;;;0.75;0.40;;;13.70;99.90;;;;;;5008896;28;20041;-75
2022/10/13 00:58:00;;;;;;;0.65;0.50;;;13.70;99.90;;;;;;5041740;28;20064;-75
2022/10/13 01:00:31;;;;;;;;;;;13.70;99.90;;;;;;5058460;28;20053;-75
2022/10/13 01:02:58;;;;;;;0.40;0.40;;;13.80;99.90;;;;;;5048842;28;19979;-75
2022/10/13 01:05:25;;;;;;;0.40;0.40;;;13.70;99.90;;;;;;5007446;28;20136;-75
2022/10/13 01:07:52;;;;;;;1.05;0.50;;;13.70;99.90;;;;;;5026746;28;20045;-75
2022/10/13 01:10:45;;;;;;;0.30;0.30;;;13.70;99.90;;;;;;5028045;28;20055;-75
2022/10/13 01:13:21;;;;;;;0.20;0.20;;;13.70;99.90;;;;;;5000918;28;20068;-76
2022/10/13 01:16:02;;;;;;;0.38;0.38;;;13.80;99.90;;;;;;5028402;28;20132;-76
2022/10/13 01:18:49;;;;;;;0.30;0.30;;;13.70;99.90;;;;;;5025049;28;20518;-76
2022/10/13 01:21:23;;;;;;;0.35;0.30;;;13.70;99.90;;;;;;5028999;28;20048;-76
2022/10/13 01:24:02;;;;;;;0.90;0.40;;;13.70;99.90;;;;;;5024116;28;20527;-76
2022/10/13 01:27:00;;;;;;;0.28;0.28;;;13.70;99.90;;;;;;5042469;28;20456;-76
2022/10/13 01:29:48;;;;;;;0.30;0.30;;;13.70;99.90;;;;;;5044201;28;20041;-75
2022/10/13 01:32:21;;;;;;;0.40;0.40;;;13.70;99.90;;;;;;5042302;28;20051;-78
2022/10/13 01:34:57;;;;;;;0.30;0.30;;;13.60;99.90;;;;;;5041139;28;20127;-77
2022/10/13 01:37:42;;;;;;;0.70;0.40;;;13.60;99.90;;;;;;5042275;28;20165;-79
2022/10/13 01:40:21;;;;;;;0.30;0.30;;;13.60;99.90;;;;;;5045479;28;20089;-81
2022/10/13 01:43:02;;;;;;;0.40;0.40;;;13.60;99.90;;;;;;5027800;28;20081;-80
2022/10/13 01:45:48;;;;;;;0.30;0.30;;;13.60;99.90;;;;;;5023151;28;20045;-78
2022/10/13 01:48:14;;;;;;;1.27;0.40;;;13.60;99.90;;;;;;5056129;28;20661;-78
2022/10/13 01:50:41;;;;;;;0.52;0.40;;;13.60;99.90;;;;;;5011269;28;20048;-77
2022/10/13 01:53:08;;;;;;;0.40;0.40;;;13.60;99.90;;;;;;5026039;28;20049;-77
2022/10/13 01:55:35;;;;;;;0.20;0.20;;;13.60;99.90;;;;;;5027632;28;20099;-76
2022/10/13 01:58:02;;;;;;;0.30;0.30;;;13.50;99.90;;;;;;5043400;28;20068;-77
2022/10/13 02:00:29;;;;;;;0.22;0.22;;;13.60;99.90;;;;;;5011333;28;20382;-76
2022/10/13 02:03:06;;;;;;;0.30;0.30;;;13.60;99.90;;;;;;5009017;28;20046;-75
2022/10/13 02:05:48;;;;;;;0.40;0.40;;;13.60;99.90;;;;;;5045126;28;20053;-76
2022/10/13 02:08:24;;;;;;;0.32;0.32;;;13.60;99.90;;;;;;5027532;28;20654;-76
2022/10/13 02:10:56;;;;;;;0.40;0.40;;;13.60;99.90;;;;;;5044215;28;20083;-76
2022/10/13 02:13:23;;;;;;;0.50;0.30;;;13.60;99.90;;;;;;5022722;28;20182;-76
2022/10/13 02:15:53;;;;;;;0.43;0.35;;;13.60;99.90;;;;;;5027594;28;20048;-76
2022/10/13 02:18:22;;;;;;;0.77;0.32;;;13.60;99.90;;;;;;5010512;28;20049;-77
2022/10/13 02:20:49;;;;;;;0.30;0.30;;;13.60;99.90;;;;;;5011098;28;20059;-77
2022/10/13 02:23:16;;;;;;;0.25;0.25;;;13.60;99.90;;;;;;5007440;28;20045;-76
2022/10/13 02:25:43;;;;;;;0.38;0.38;;;13.60;99.90;;;;;;5043736;28;20068;-76
2022/10/13 02:28:11;;;;;;;0.30;0.30;;;13.50;99.90;;;;;;5027080;28;20041;-76
2022/10/13 02:30:38;;;;;;;0.45;0.40;;;13.50;99.90;;;;;;5011322;28;20050;-77
2022/10/13 02:33:05;;;;;;;0.20;0.20;;;13.50;99.90;;;;;;5023804;28;20128;-78
2022/10/13 02:35:32;;;;;;;0.50;0.40;;;13.50;99.90;;;;;;5047630;28;20141;-79
2022/10/13 02:37:59;;;;;;;0.30;0.30;;;13.50;99.90;;;;;;5047843;28;20080;-77
2022/10/13 02:40:26;;;;;;;0.30;0.30;;;13.50;99.90;;;;;;5047747;28;20049;-77
2022/10/13 02:42:53;;;;;;;0.32;0.32;;;13.50;99.90;;;;;;5015032;28;20248;-76
2022/10/13 02:45:19;;;;;;;0.40;0.40;;;13.50;99.90;;;;;;5047112;28;20057;-76
2022/10/13 02:47:46;;;;;;;0.35;0.35;;;13.50;99.90;;;;;;5030574;28;20500;-76
2022/10/13 02:50:13;;;;;;;0.40;0.40;;;13.50;99.90;;;;;;5047717;28;20044;-76
2022/10/13 02:52:40;;;;;;;0.30;0.30;;;13.50;99.90;;;;;;5014066;28;20044;-77
2022/10/13 02:55:08;;;;;;;0.40;0.40;;;13.50;99.90;;;;;;5030967;28;20103;-77
2022/10/13 02:57:35;;;;;;;0.25;0.25;;;13.50;99.90;;;;;;5047912;28;20065;-77
2022/10/13 03:00:04;;;;;;;0.45;0.40;;;13.40;99.90;;;;;;5031193;28;20128;-77
2022/10/13 03:02:31;;;;;;;0.30;0.30;;;13.40;99.90;;;;;;5010772;28;20057;-77
2022/10/13 03:04:58;;;;;;;0.60;0.55;;;13.40;99.90;;;;;;5030313;28;20051;-77
2022/10/13 03:07:26;;;;;;;0.40;0.32;;;13.40;99.90;;;;;;5030596;28;20049;-77
2022/10/13 03:09:54;;;;;;;0.40;0.40;;;13.50;99.90;;;;;;5030619;28;20056;-77
2022/10/13 03:12:20;;;;;;;0.40;0.40;;;13.50;99.90;;;;;;5047140;28;20124;-77
2022/10/13 03:14:48;;;;;;;0.55;0.47;;;13.50;99.90;;;;;;5014300;28;20657;-77
2022/10/13 03:17:15;;;;;;;0.30;0.30;;;13.50;99.90;;;;;;5029974;28;20514;-76
2022/10/13 03:19:41;;;;;;;0.50;0.50;;;13.50;99.90;;;;;;5046573;28;20041;-76
2022/10/13 03:22:08;;;;;;;0.40;0.40;;;13.50;99.90;;;;;;5017803;28;20041;-76
2022/10/13 03:24:35;;;;;;;0.75;0.30;;;13.50;99.90;;;;;;5028518;28;20046;-76
2022/10/13 03:27:01;;;;;;;0.40;0.40;;;13.50;99.90;;;;;;5028171;28;20057;-76
2022/10/13 03:29:28;;;;;;;0.32;0.32;;;13.40;99.90;;;;;;5033039;28;20404;-76
2022/10/13 03:31:55;;;;;;;0.32;0.32;;;13.40;99.90;;;;;;5042915;28;20045;-75
2022/10/13 03:34:22;;;;;;;0.43;0.30;;;13.40;99.90;;;;;;5045206;28;20049;-76
2022/10/13 03:36:49;;;;;;;0.47;0.40;;;13.40;99.90;;;;;;5046410;28;20053;-77
2022/10/13 03:39:15;;;;;;;0.30;0.30;;;13.40;99.90;;;;;;5030976;28;20071;-76
2022/10/13 03:41:42;;;;;;;0.40;0.40;;;13.40;99.90;;;;;;5032983;28;20059;-79
2022/10/13 03:44:11;;;;;;;0.22;0.22;;;13.40;99.90;;;;;;5028069;28;20067;-78
2022/10/13 03:46:38;;;;;;;0.30;0.30;;;13.40;99.90;;;;;;5039757;28;20507;-79
2022/10/13 03:49:05;;;;;;;0.32;0.32;;;13.40;99.90;;;;;;5049432;28;20052;-78
2022/10/13 03:51:32;;;;;;;0.60;0.43;;;13.40;99.90;;;;;;5029688;28;20049;-79
2022/10/13 03:53:59;;;;;;;0.40;0.40;;;13.40;99.90;;;;;;5062820;28;20041;-79
2022/10/13 03:56:26;;;;;;;0.40;0.40;;;13.40;99.90;;;;;;5036486;28;20051;-79
2022/10/13 03:58:57;;;;;;;0.38;0.38;;;13.40;99.90;;;;;;5067047;28;20127;-79
2022/10/13 04:01:27;;;;;;;0.35;0.35;;;13.30;99.90;;;;;;5039180;28;20048;-79
2022/10/13 04:03:54;;;;;;;0.30;0.30;;;13.40;99.90;;;;;;5014790;28;20098;-81
2022/10/13 04:06:21;;;;;;;0.30;0.30;;;13.30;99.90;;;;;;5051987;28;20053;-79
2022/10/13 04:08:48;;;;;;;1.33;0.55;;;13.40;99.90;;;;;;5046706;28;20059;-79
2022/10/13 04:11:15;;;;;;;0.57;0.50;;;13.30;99.90;;;;;;5054782;28;20186;-80
2022/10/13 04:13:42;;;;;;;0.30;0.30;;;13.40;99.90;;;;;;5028980;28;20045;-79
2022/10/13 04:16:20;;;;;;;0.50;0.40;;;13.40;99.90;;;;;;5022331;28;20064;-79
2022/10/13 04:18:52;;;;;;;0.47;0.47;;;13.30;99.90;;;;;;5029945;28;20045;-78
2022/10/13 04:21:19;;;;;;;0.43;0.32;;;13.30;99.90;;;;;;5043753;28;20119;-78
2022/10/13 04:23:46;;;;;;;0.30;0.30;;;13.30;99.90;;;;;;5047362;28;20504;-78
2022/10/13 04:26:17;;;;;;;0.38;0.38;;;13.30;99.90;;;;;;5022845;28;20067;-78
2022/10/13 04:28:45;;;;;;;0.30;0.30;;;13.30;99.90;;;;;;5045659;28;20041;-77
2022/10/13 04:31:12;;;;;;;0.40;0.40;;;13.30;99.90;;;;;;5041993;28;20052;-77
2022/10/13 04:33:38;;;;;;;0.40;0.40;;;13.30;99.90;;;;;;5039916;28;20048;-77
2022/10/13 04:36:06;;;;;;;0.70;0.50;;;13.30;99.90;;;;;;5067216;28;20064;-78
2022/10/13 04:38:33;;;;;;;0.45;0.45;;;13.30;99.90;;;;;;5049749;28;20048;-78
2022/10/13 04:41:06;;;;;;;0.50;0.50;;;13.30;99.90;;;;;;5056524;28;20056;-78
2022/10/13 04:43:33;;;;;;;0.50;0.40;;;13.30;99.90;;;;;;5051589;28;20041;-80
2022/10/13 04:46:01;;;;;;;0.90;0.47;;;13.30;99.90;;;;;;5067858;28;20770;-77
2022/10/13 04:48:28;;;;;;;0.22;0.22;;;13.30;99.90;;;;;;5051056;28;20061;-75
2022/10/13 04:51:02;;;;;;;0.35;0.35;;;13.20;99.90;;;;;;5059424;28;20749;-77
2022/10/13 04:53:30;;;;;;;0.50;0.50;;;13.30;99.90;;;;;;5031085;28;20056;-77
2022/10/13 04:56:00;;;;;;;0.40;0.35;;;13.20;99.90;;;;;;5044905;28;20051;-76
2022/10/13 04:58:26;;;;;;;0.40;0.40;;;13.20;99.90;;;;;;5061166;28;20684;-77
2022/10/13 05:00:53;;;;;;;0.32;0.32;;;13.20;99.90;;;;;;5055919;28;20119;-77
2022/10/13 05:03:21;;;;;;;0.50;0.40;;;13.20;99.90;;;;;;5038292;28;20052;-77
2022/10/13 05:05:47;;;;;;;0.30;0.30;;;13.20;99.90;;;;;;5027094;28;20483;-74
2022/10/13 05:08:14;;;;;;;0.57;0.57;;;13.20;99.90;;;;;;5041673;28;20122;-74
2022/10/13 05:10:41;;;;;;;1.52;0.63;;;13.20;99.90;;;;;;5042632;28;20053;-75
2022/10/13 05:13:08;;;;;;;0.50;0.50;;;13.20;99.90;;;;;;5042772;28;20061;-75
2022/10/13 05:15:38;;;;;;;0.40;0.40;;;13.20;99.90;;;;;;5043885;28;20204;-74
2022/10/13 05:18:04;;;;;;;0.50;0.40;;;13.20;99.90;;;;;;5028165;28;20533;-75
2022/10/13 05:20:31;;;;;;;0.63;0.63;;;13.20;99.90;;;;;;5023141;28;20115;-75
2022/10/13 05:22:59;;;;;;;0.55;0.50;;;13.20;99.90;;;;;;5055559;28;20475;-74
2022/10/13 05:25:25;;;;;;;1.15;0.75;;;13.20;99.90;;;;;;5025476;28;20136;-75
2022/10/13 05:27:59;;;;;;;0.50;0.50;;;13.20;99.90;;;;;;5050168;28;20044;-74
2022/10/13 05:30:25;;;;;;;0.50;0.50;;;13.20;99.90;;;;;;5027870;28;20051;-74
2022/10/13 05:32:52;;;;;;;0.52;0.52;;;13.20;99.90;;;;;;5066620;28;20502;-74
2022/10/13 05:35:19;;;;;;;0.65;0.47;;;13.20;99.90;;;;;;5058633;28;20132;-77
2022/10/13 05:37:46;;;;;;;0.68;0.50;;;13.30;99.90;;;;;;5066128;28;20119;-74
2022/10/13 05:40:13;;;;;;;0.85;0.60;;;13.30;99.90;;;;;;5048108;28;20049;-74
2022/10/13 05:42:40;;;;;;;0.47;0.47;;;13.30;99.90;;;;;;5060052;28;20132;-74
2022/10/13 05:45:10;;;;;;;0.70;0.70;;;13.30;99.90;;;;;;5041609;28;20080;-74
2022/10/13 05:47:37;;;;;;;0.63;0.60;;;13.30;99.90;;;;;;5041196;28;20080;-74
2022/10/13 05:50:04;;;;;;;0.70;0.63;;;13.30;99.90;;;;;;5041849;28;20063;-74
2022/10/13 05:52:31;;;;;;;0.95;0.60;;;13.30;99.90;;;;;;5042213;28;20144;-74
2022/10/13 05:54:59;;;;;;;1.05;0.90;;;13.40;99.90;;;;;;5037610;28;20049;-74
2022/10/13 05:57:37;;;;;;;0.63;0.63;;;13.30;99.90;;;;;;5032843;28;20743;-74
2022/10/13 06:00:07;;;;;;;1.00;0.75;;;13.30;99.90;;;;;;5021883;28;20053;-74
2022/10/13 06:02:40;;;;;;;0.65;0.65;;;13.30;99.90;;;;;;5052491;28;20500;-74
2022/10/13 06:05:07;;;;;;;0.82;0.75;;;13.30;99.90;;;;;;5046315;28;20060;-74
2022/10/13 06:07:34;;;;;;;0.65;0.65;;;13.40;99.90;;;;;;5038362;28;20055;-73
2022/10/13 06:10:00;;;;;;;1.00;0.80;;;13.30;99.90;;;;;;5038361;28;20049;-74
2022/10/13 06:12:28;;;;;;;0.80;0.80;;;13.30;99.90;;;;;;5037811;28;20065;-74
2022/10/13 06:14:54;;;;;;;0.77;0.70;;;13.30;99.90;;;;;;5038488;28;20048;-75
2022/10/13 06:17:21;;;;;;;0.80;0.80;;;13.40;99.90;;;;;;5040247;28;20667;-76
2022/10/13 06:19:48;;;;;;;1.38;0.90;;;13.40;99.90;;;;;;5045077;28;20041;-76
2022/10/13 06:22:16;;;;;;;0.90;0.77;;;13.40;99.90;;;;;;5043594;28;20048;-76
2022/10/13 06:24:43;;;;;;;1.30;0.90;;;13.40;99.90;;;;;;5043415;28;20500;-76
2022/10/13 06:27:10;;;;;;;0.77;0.77;;;13.40;99.90;;;;;;5044514;28;20797;-77
2022/10/13 06:29:37;;;;;;;1.42;0.93;;;13.40;99.90;;;;;;5042207;28;20049;-77
2022/10/13 06:32:04;;;;;;;0.77;0.65;;;13.40;99.90;;;;;;5045218;28;20136;-75
2022/10/13 06:34:31;;;;;;;0.95;0.85;;;13.40;99.90;;;;;;5038443;28;20059;-75
2022/10/13 06:36:58;;;;;;;1.00;0.80;;;13.40;99.90;;;;;;5037477;28;20469;-76
2022/10/13 06:39:25;;;;;;;0.75;0.75;;;13.50;99.90;;;;;;5020499;28;20576;-76
2022/10/13 06:41:54;;;;;;;1.10;0.90;;;13.50;99.90;;;;;;5008514;28;20053;-75
2022/10/13 06:44:20;;;;;;;0.60;0.60;;;13.50;99.90;;;;;;5050682;28;20542;-75
2022/10/13 06:46:47;;;;;;;1.00;0.80;;;13.50;99.90;;;;;;5037655;28;20055;-75
2022/10/13 06:49:14;;;;;;;1.20;0.80;;;13.50;99.90;;;;;;5021293;28;20049;-74
2022/10/13 06:51:41;;;;;;;0.85;0.70;;;13.50;99.90;;;;;;5046739;28;20065;-75
2022/10/13 06:54:08;;;;;;;0.75;0.75;;;13.60;99.90;;;;;;5045769;28;20659;-74
2022/10/13 06:56:35;;;;;;;0.95;0.82;;;13.60;99.90;;;;;;5006711;28;20168;-74
2022/10/13 06:59:02;;;;;;;1.05;0.82;;;13.60;99.90;;;;;;5022411;28;20077;-74
2022/10/13 07:01:29;;;;;;;0.80;0.80;;;13.60;99.90;;;;;;5031589;28;20079;-76
2022/10/13 07:03:57;;;;;;;0.95;0.77;;;13.60;99.90;;;;;;5038130;28;20055;-75
2022/10/13 07:06:23;;;;;;;1.27;1.13;;;13.60;99.90;;;;;;5030061;28;20159;-75
2022/10/13 07:08:50;;;;;;;1.38;1.10;;;13.60;99.90;;;;;;5037184;28;20045;-75
2022/10/13 07:11:17;;;;;;;0.70;0.70;;;13.70;99.90;;;;;;5003786;28;20580;-75
2022/10/13 07:13:44;;;;;;;1.10;1.00;;;13.70;99.90;;;;;;5006830;28;20141;-75
2022/10/13 07:16:13;;;;;;;1.05;0.80;;;13.70;99.90;;;;;;5021113;28;20086;-75
2022/10/13 07:18:40;;;;;;;0.80;0.80;;;13.70;99.90;;;;;;5017500;28;20077;-75
2022/10/13 07:21:07;;;;;;;1.10;0.90;;;13.70;99.90;;;;;;5014402;28;20095;-75
2022/10/13 07:23:33;;;;;;;0.80;0.80;;;13.70;99.90;;;;;;5035349;28;20061;-75
2022/10/13 07:26:01;;;;;;;1.13;0.93;;;13.80;99.90;;;;;;5020487;28;20140;-76
2022/10/13 07:28:27;;;;;;;1.17;0.90;;;13.80;99.90;;;;;;5035811;28;20132;-76
2022/10/13 07:30:54;;;;;;;1.00;0.90;;;13.80;99.90;;;;;;5020656;28;20578;-76
2022/10/13 07:33:21;;;;;;;0.80;0.80;;;13.80;99.90;;;;;;5020214;28;20128;-76
2022/10/13 07:35:48;;;;;;;1.25;0.90;;;13.80;99.90;;;;;;5004053;28;20057;-76
2022/10/13 07:38:16;;;;;;;1.20;0.85;;;13.70;99.90;;;;;;5038928;28;20076;-76
2022/10/13 07:40:42;;;;;;;0.80;0.75;;;13.70;99.90;;;;;;5043860;28;20056;-76
2022/10/13 07:43:10;;;;;;;1.00;0.90;;;13.70;99.90;;;;;;5020005;28;20670;-76
2022/10/13 07:45:36;;;;;;;1.00;0.88;;;13.60;99.90;;;;;;5029159;28;20084;-76
2022/10/13 07:48:03;;;;;;;1.10;0.93;;;13.60;99.90;;;;;;5007172;28;20056;-75
2022/10/13 07:50:30;;;;;;;1.30;1.10;;;13.60;99.90;;;;;;5041843;28;20071;-76
2022/10/13 07:52:57;;;;;;;1.00;0.90;;;13.60;99.90;;;;;;5047091;28;20601;-74
2022/10/13 07:55:24;;;;;;;1.08;0.75;;;13.60;99.90;;;;;;5046793;28;20417;-74
2022/10/13 07:57:50;;;;;;;1.35;1.00;;;13.60;99.90;;;;;;5007157;28;20057;-74
2022/10/13 08:00:17;;;;;;;1.45;1.25;;;13.60;99.90;;;;;;5027506;28;20133;-75
2022/10/13 08:02:44;;;;;;;1.00;0.90;;;13.70;99.90;;;;;;5022766;28;20059;-77
2022/10/13 08:05:11;;;;;;;1.17;0.90;;;13.70;99.90;;;;;;5008124;28;20521;-77
2022/10/13 08:07:38;;;;;;;1.50;1.20;;;13.80;99.90;;;;;;5027487;28;20053;-77
2022/10/13 08:10:05;;;;;;;1.25;1.15;;;13.90;99.90;;;;;;5047196;28;20641;-75
2022/10/13 08:12:34;;;;;;;1.30;1.20;;;14.00;99.90;;;;;;5042929;28;20052;-76
2022/10/13 08:15:01;;;;;;;1.50;1.25;;;14.10;99.90;;;;;;5042639;28;20169;-77
2022/10/13 08:17:32;;;;;;;1.58;1.38;;;14.10;99.90;;;;;;5041469;28;20052;-77
2022/10/13 08:19:58;;;;;;;1.77;1.35;;;14.20;99.90;;;;;;5046077;28;20527;-75
2022/10/13 08:22:26;;;;;;;1.45;1.30;;;14.30;99.90;;;;;;5042200;28;20550;-74
2022/10/13 08:24:54;;;;;;;1.40;1.30;;;14.40;99.90;;;;;;5042324;28;20049;-77
2022/10/13 08:27:22;;;;;;;2.20;1.35;;;14.50;99.90;;;;;;5060577;28;20049;-74
2022/10/13 08:30:03;;;;;;;1.42;1.20;;;14.60;99.90;;;;;;5022657;28;20132;-75
2022/10/13 08:32:30;;;;;;;1.58;1.05;;;14.70;99.90;;;;;;5016500;28;20053;-74
2022/10/13 08:34:57;;;;;;;1.42;1.23;;;14.80;99.90;;;;;;5043187;28;20493;-76
2022/10/13 08:37:24;;;;;;;1.40;1.30;;;14.90;99.90;;;;;;5047131;28;20065;-76
2022/10/13 08:39:53;;;;;;;1.98;1.50;;;15.10;99.90;;;;;;5041612;28;20055;-76
2022/10/13 08:42:23;;;;;;;1.55;1.30;;;15.10;99.90;;;;;;5038402;28;20053;-76
2022/10/13 08:44:57;;;;;;;1.77;1.40;;;15.10;99.90;;;;;;5029118;28;20045;-76
2022/10/13 08:48:22;;;;;;;;;;;15.10;99.90;;;;;;5028604;28;20075;-76
2022/10/13 08:50:51;;;;;;;1.23;1.00;;;15.10;99.90;;;;;;4956593;28;19933;-75
2022/10/13 08:53:49;;;;;;;1.08;0.80;;;15.10;99.90;;;;;;4950297;28;20081;-74
2022/10/13 08:56:23;;;;;;;0.88;0.80;;;15.20;99.90;;;;;;5008270;28;20049;-75
2022/10/13 08:58:51;;;;;;;1.27;1.10;;;15.30;99.90;;;;;;5040711;28;20056;-75
2022/10/13 09:01:20;;;;;;;0.75;0.75;;;15.40;99.90;;;;;;5024858;28;20053;-75
2022/10/13 09:03:52;;;;;;;0.88;0.88;;;15.30;99.90;;;;;;5005896;28;20557;-75
2022/10/13 09:06:27;;;;;;;1.10;1.00;;;15.40;99.90;;;;;;5068876;28;20532;-75
2022/10/13 09:08:59;;;;;;;1.05;0.95;;;15.40;99.90;;;;;;5041272;28;20057;-75
2022/10/13 09:11:31;;;;;;;1.10;1.00;;;15.40;99.90;;;;;;5013871;28;20045;-74
2022/10/13 09:13:59;;;;;;;1.57;1.30;;;15.40;99.90;;;;;;5035840;28;20041;-75
2022/10/13 09:16:37;;;;;;;1.08;0.88;;;15.40;99.90;;;;;;5059828;28;20062;-75
2022/10/13 09:19:30;;;;;;;1.13;1.00;;;15.60;99.90;;;;;;5029394;28;20149;-75
2022/10/13 09:22:12;;;;;;;;;;;15.80;99.90;;;;;;5065364;28;20212;-75
2022/10/13 09:24:38;;;;;;;1.27;0.95;;;15.80;99.90;;;;;;5043170;28;19928;-75
2022/10/13 09:27:14;;;;;;;0.60;0.60;;;15.90;99.90;;;;;;5041088;28;20480;-75
2022/10/13 09:29:41;;;;;;;1.05;0.80;;;16.00;99.90;;;;;;5031663;28;20147;-75
2022/10/13 09:32:20;;;;;;;0.70;0.70;;;16.10;99.90;;;;;;5004131;28;20063;-75
2022/10/13 09:34:47;;;;;;;0.60;0.60;;;16.00;99.90;;;;;;5035129;28;20044;-74
2022/10/13 09:37:24;;;;;;;0.70;0.68;;;16.00;99.90;;;;;;5034747;28;20068;-75
2022/10/13 09:40:10;;;;;;;0.50;0.50;;;16.00;99.90;;;;;;5027446;28;20057;-75
2022/10/13 09:42:36;;;;;;;0.70;0.68;;;16.00;99.90;;;;;;5038360;28;20075;-75
2022/10/13 09:45:14;;;;;;;0.68;0.50;;;16.00;99.90;;;;;;5017990;28;20110;-75
2022/10/13 09:47:44;;;;;;;0.80;0.60;;;16.10;99.90;;;;;;5019106;28;20064;-75
2022/10/13 09:50:17;;;;;;;0.98;0.75;;;16.20;99.90;;;;;;5016165;28;20436;-75
2022/10/13 09:52:44;;;;;;;0.57;0.57;;;16.30;99.90;;;;;;5037966;28;20135;-75
2022/10/13 09:55:29;;;;;;;0.70;0.68;;;16.40;99.90;;;;;;5022306;28;20093;-74
2022/10/13 09:58:20;;;;;;;0.50;0.50;;;16.50;99.90;;;;;;5036997;28;20059;-73
2022/10/13 10:00:48;;;;;;;0.60;0.60;;;16.60;99.90;;;;;;5033693;28;20044;-73
2022/10/13 10:03:23;;;;;;;0.52;0.52;;;16.70;99.90;;;;;;5018458;28;20058;-74
2022/10/13 10:05:53;;;;;;;0.80;0.65;;;16.80;99.90;;;;;;5020757;28;20049;-74
2022/10/13 10:08:49;;;;;;;1.23;0.80;;;16.90;99.90;;;;;;5037526;28;20060;-74
2022/10/13 10:11:41;;;;;;;0.80;0.55;;;17.00;99.90;;;;;;5025040;28;20057;-74
2022/10/13 10:14:28;;;;;;;0.50;0.50;;;17.10;99.90;;;;;;5018305;28;20493;-74
2022/10/13 10:16:57;;;;;;;2.25;0.82;;;17.00;99.90;;;;;;5018136;28;20827;-74
2022/10/13 10:19:44;;;;;;;0.80;0.60;;;17.10;99.90;;;;;;5024223;28;20496;-74
2022/10/13 10:22:42;;;;;;;0.93;0.70;;;17.20;99.90;;;;;;5022854;28;20060;-74
2022/10/13 10:25:33;;;;;;;0.63;0.55;;;17.40;99.90;;;;;;5024930;28;20056;-74
2022/10/13 10:28:07;;;;;;;0.70;0.70;;;17.50;99.90;;;;;;5019081;28;20358;-73
2022/10/13 10:30:34;;;;;;;1.17;0.98;;;17.70;99.90;;;;;;5039673;28;20049;-73
2022/10/13 10:33:26;;;;;;;1.60;1.00;;;17.70;99.90;;;;;;5019578;28;20191;-73
2022/10/13 10:36:27;;;;;;;0.98;0.82;;;17.90;99.90;;;;;;5019831;28;20143;-73
2022/10/13 10:39:01;;;;;;;0.90;0.70;;;18.20;99.90;;;;;;5039967;28;20860;-73
2022/10/13 10:42:09;;;;;;;1.45;0.60;;;18.20;99.90;;;;;;5018466;28;20056;-73
2022/10/13 10:44:39;;;;;;;0.70;0.70;;;18.30;99.90;;;;;;5036465;28;20052;-73
2022/10/13 10:47:12;;;;;;;1.35;0.80;;;18.40;99.90;;;;;;5022185;28;20099;-73
2022/10/13 10:49:39;;;;;;;1.10;0.80;;;18.50;99.90;;;;;;5018035;28;20045;-73
2022/10/13 10:52:08;;;;;;;0.70;0.60;;;18.60;99.90;;;;;;5017728;28;20152;-73
2022/10/13 10:54:51;;;;;;;0.77;0.65;;;18.80;99.90;;;;;;5019542;28;20490;-75
2022/10/13 10:57:36;;;;;;;0.52;0.52;;;18.90;99.90;;;;;;5042874;28;20053;-73
2022/10/13 11:00:10;;;;;;;0.60;0.60;;;18.90;99.90;;;;;;5043721;28;20456;-73
2022/10/13 11:03:01;;;;;;;0.68;0.60;;;18.90;99.90;;;;;;5041353;28;20099;-73
2022/10/13 11:05:56;;;;;;;0.40;0.40;;;18.80;99.90;;;;;;5041928;28;20037;-73
2022/10/13 11:08:39;;;;;;;0.60;0.60;;;18.90;99.90;;;;;;5041084;28;20116;-73
2022/10/13 11:11:18;;;;;;;1.25;1.13;;;19.00;99.90;;;;;;5036300;28;20053;-74
2022/10/13 11:13:56;;;;;;;2.58;1.60;;;19.00;99.90;;;;;;5033174;28;20140;-87
2022/10/13 11:16:27;;;;;;;2.33;1.70;;;18.90;99.90;;;;;;5025901;28;20527;-76
2022/10/13 11:18:55;;;;;;;3.00;1.88;;;18.70;99.90;;;;;;5024847;28;20203;-76
2022/10/13 11:21:22;;;;;;;2.67;2.42;;;18.40;99.90;;;;;;5041242;28;20286;-76
2022/10/13 11:23:49;;;;;;;2.70;2.38;;;18.10;99.90;;;;;;5021601;28;20103;-76
2022/10/13 11:26:31;;;;;;;3.25;2.25;;;17.80;99.90;;;;;;5021356;28;20434;-76
2022/10/13 11:28:59;;;;;;;3.03;2.38;;;17.60;99.90;;;;;;4989413;28;20068;-77
2022/10/13 11:31:30;;;;;;;2.58;1.95;;;17.50;99.90;;;;;;5041607;28;20044;-76
2022/10/13 11:34:02;;;;;;;2.10;1.75;;;17.40;99.90;;;;;;5025425;28;20063;-76
2022/10/13 11:36:53;;;;;;;2.20;1.70;;;17.40;99.90;;;;;;5041253;28;20155;-76
2022/10/13 11:39:31;;;;;;;1.92;1.60;;;17.20;99.90;;;;;;5025650;28;20049;-77
2022/10/13 11:42:32;;;;;;;1.60;1.50;;;17.20;99.90;;;;;;5042652;28;20052;-76
2022/10/13 11:45:18;;;;;;;1.45;1.08;;;17.10;99.90;;;;;;5037770;28;20049;-76
2022/10/13 11:48:17;;;;;;;1.35;1.20;;;17.00;99.90;;;;;;5023209;28;20045;-75
2022/10/13 11:51:08;;;;;;;1.10;0.80;;;17.00;99.90;;;;;;5054197;28;20076;-78
2022/10/13 11:53:46;;;;;;;1.40;1.23;;;17.00;99.90;;;;;;5045535;28;20056;-78
2022/10/13 11:56:30;;;;;;;1.75;1.30;;;17.00;99.90;;;;;;5039966;28;20059;-78
2022/10/13 11:58:57;;;;;;;2.03;1.60;;;16.90;99.90;;;;;;5028948;28;20083;-77
2022/10/13 12:01:24;;;;;;;1.40;1.30;;;16.90;99.90;;;;;;5023416;28;20756;-77
2022/10/13 12:03:51;;;;;;;2.05;1.40;;;16.80;99.90;;;;;;5026329;28;20048;-78
2022/10/13 12:06:35;;;;;;;1.40;1.00;;;16.80;99.90;;;;;;5058942;28;20092;-79
2022/10/13 12:09:19;;;;;;;2.30;1.40;;;16.90;99.90;;;;;;5041167;28;20072;-78
2022/10/13 12:11:45;;;;;;;;;;;16.90;99.90;;;;;;5036148;28;20075;-78
2022/10/13 12:14:30;;;;;;;1.35;1.00;;;17.00;99.90;;;;;;5035144;28;20030;-78
2022/10/13 12:16:58;;;;;;;1.75;1.23;;;17.00;99.90;;;;;;5040445;28;20045;-78
2022/10/13 12:19:27;;;;;;;1.10;1.00;;;17.00;99.90;;;;;;5024301;28;20061;-74
2022/10/13 12:21:55;;;;;;;1.10;1.00;;;16.90;99.90;;;;;;5005958;28;20080;-78
2022/10/13 12:24:23;;;;;;;1.38;0.95;;;17.00;99.90;;;;;;5042321;28;20061;-76
2022/10/13 12:26:50;;;;;;;2.38;1.00;;;17.10;99.90;;;;;;5006764;28;20059;-75
2022/10/13 12:29:18;;;;;;;1.00;0.80;;;17.10;99.90;;;;;;5005052;28;20049;-75
2022/10/13 12:31:48;;;;;;;1.00;0.80;;;17.20;99.90;;;;;;5021553;28;20061;-75
2022/10/13 12:34:28;;;;;;;1.00;0.77;;;17.30;99.90;;;;;;5007020;28;20044;-75
2022/10/13 12:37:01;;;;;;;1.00;0.90;;;17.50;99.90;;;;;;5039131;28;20053;-75
2022/10/13 12:39:29;;;;;;;1.45;0.73;;;17.50;99.90;;;;;;5005864;28;20496;-76
2022/10/13 12:41:56;;;;;;;1.23;0.90;;;17.60;99.90;;;;;;5023012;28;20150;-76
2022/10/13 12:44:25;;;;;;;0.70;0.68;;;17.70;99.90;;;;;;5020094;28;20128;-76
2022/10/13 12:46:55;;;;;;;1.15;0.70;;;17.90;99.90;;;;;;5022293;28;20057;-76
2022/10/13 12:49:25;;;;;;;1.80;0.75;;;17.90;99.90;;;;;;5036713;28;20137;-76
2022/10/13 12:51:56;;;;;;;0.95;0.80;;;18.00;99.90;;;;;;5020373;28;20142;-77
2022/10/13 12:54:36;;;;;;;1.27;0.80;;;18.10;99.90;;;;;;5035449;28;20072;-77
2022/10/13 12:57:17;;;;;;;1.50;0.80;;;18.10;99.90;;;;;;5036162;28;20045;-76
2022/10/13 12:59:44;;;;;;;0.60;0.50;;;18.10;99.90;;;;;;5025748;28;20049;-76
2022/10/13 13:02:38;;;;;;;0.98;0.60;;;18.10;99.90;;;;;;5057994;28;20092;-77
2022/10/13 13:05:32;;;;;;;0.98;0.70;;;18.10;99.90;;;;;;5015020;28;20080;-76
2022/10/13 13:07:59;;;;;;;0.90;0.47;;;18.20;99.90;;;;;;5020912;28;20071;-77
2022/10/13 13:10:26;;;;;;;0.57;0.52;;;18.30;99.90;;;;;;5017718;28;20052;-77